• Join FlightAware (Why Join?)
  • Login
  • US Flag 
12:25AM EDT


 

Airport Tracker/Info


-or-


 

Live Flight TrackerFlight Track Log ✈ DAL6068 ✈ 31-Dec-2013 ✈ KDTW - KSYR

Flight Track Log - Related Links

Times and Time Zones

All times are in EST time to prevent confusion due to time zone crossing. See the DAL6068 flight status page for this flight to view local times or setup timezone preferences in your user account.

Time Position Orientation Groundspeed Altitude Reporting Facility
EST Latitude Longitude Course Direction KTS MPH feet Rate Location/Type
12:47PM 42.2061 -83.3672 90° East 160 184 1,400  Level Cleveland Center
12:47PM 42.1769 -83.3631 174° South 194 223 3,000 2,280 Climbing Cleveland Center
12:48PM 42.1536 -83.3603 175° South 192 221 4,200 2,700 Climbing Cleveland Center
12:48PM 42.1189 -83.3547 173° South 216 249 5,800 2,760 Climbing Cleveland Center
12:49PM 42.0925 -83.3328 148° Southeast 222 255 7,100 2,040 Climbing Cleveland Center
12:49PM 42.0831 -83.2794 103° East 275 316 8,100 1,740 Climbing Cleveland Center
12:50PM 42.3143 -82.6945 94° East  Level Estimated
12:50PM 42.0919 -83.2369 74° East 259 298 8,900  Level Cleveland Center
12:51PM 42.3153 -82.5261 89° East  Level FlightAware Approximate
12:51PM 42.1331 -83.1278 63° Northeast 296 341 10,900  Level Cleveland Center
12:52PM 42.3161 -82.3577 90° East  Level FlightAware Approximate
12:52PM 42.1731 -83.0142 65° Northeast 335 386 12,400  Level Cleveland Center
12:53PM 42.2156 -82.8928 65° Northeast 358 412 14,300 1,800 Climbing Cleveland Center
12:54PM 42.2594 -82.7675 65° Northeast 368 423 16,100 1,680 Climbing Cleveland Center
12:55PM 42.3050 -82.6364 65° Northeast 385 443 17,800 1,560 Climbing Cleveland Center
12:56PM 42.3567 -82.4694 67° East 403 464 19,400 1,560 Climbing Cleveland Center
12:57PM 42.3611 -82.3031 88° East 445 512 21,100 1,620 Climbing Cleveland Center
12:58PM 42.3547 -82.1317 93° East 460 529 22,800 1,620 Climbing Cleveland Center
12:59PM 42.3469 -81.9569 93° East 462 532 24,500 1,560 Climbing Cleveland Center
01:00PM 42.3392 -81.7789 93° East 467 537 26,100 1,620 Climbing Cleveland Center
01:01PM 42.3306 -81.6008 94° East 470 541 27,900 1,380 Climbing Cleveland Center
01:02PM 42.3222 -81.4197 94° East 475 547 29,000 480 Climbing Cleveland Center
01:03PM 42.3133 -81.2256 93° East 506 582 29,000  Level Cleveland Center
01:04PM 42.3022 -81.0214 94° East 533 613 29,000  Level Cleveland Center
01:05PM 42.2919 -80.8139 94° East 545 627 29,000  Level Cleveland Center
01:06PM 42.3106 -80.6142 83° East 535 616 29,000  Level Cleveland Center
01:07PM 42.3542 -80.3911 75° East 522 601 29,000  Level Cleveland Center
01:08PM 42.3931 -80.1994 75° East 523 602 29,000  Level Cleveland Center
01:09PM 42.4300 -80.0081 75° East 521 600 29,000  Level Cleveland Center
01:10PM 42.4669 -79.8211 75° East 521 600 29,000  Level Cleveland Center
01:11PM 42.5019 -79.6308 76° East 522 601 29,000  Level Cleveland Center
01:12PM 42.5381 -79.4403 76° East 523 602 29,000  Level Cleveland Center
01:13PM 42.5733 -79.2506 76° East 522 601 29,000  Level Cleveland Center
01:14PM 42.6083 -79.0586 76° East 523 602 29,000 -180 Level Cleveland Center
01:15PM 42.6431 -78.8672 76° East 523 602 28,700 -600 Descending Cleveland Center
01:16PM 42.6850 -78.6386 76° East 520 598 27,800 -1,200 Descending Cleveland Center
01:17PM 42.7178 -78.4517 77° East 511 588 26,300 -1,560 Descending Cleveland Center
01:18PM 42.7525 -78.2592 76° East 522 601 24,700 -1,500 Descending Cleveland Center
01:20PM 42.7864 -78.0686 76° East 516 594 23,300 -1,440 Descending Cleveland Center
01:21PM 42.8178 -77.8842 77° East 498 573 21,800 -1,620 Descending Cleveland Center
01:22PM 42.8489 -77.7069 76° East 474 545 20,100 -1,860 Descending Cleveland Center
01:23PM 42.8775 -77.5378 77° East 455 524 18,100 -1,980 Descending Cleveland Center
01:24PM 42.9058 -77.3725 77° East 446 513 16,100 -1,860 Descending Cleveland Center
01:25PM 42.9308 -77.2208 77° East 415 478 14,400 -1,620 Descending Cleveland Center
01:26PM 42.9553 -77.0758 77° East 397 457 12,900 -1,440 Descending Cleveland Center
01:27PM 42.9786 -76.9356 77° East 382 440 11,500 -960 Descending Cleveland Center
01:28PM 43.0000 -76.8056 77° East 360 414 11,000 -300 Descending Cleveland Center
01:29PM 43.0228 -76.6706 77° East 336 387 10,900 -540 Descending Cleveland Center
01:30PM 43.0497 -76.5553 72° East 322 371 9,900 -1,440 Descending Cleveland Center
01:31PM 43.0850 -76.4494 65° Northeast 309 356 8,000 -1,620 Descending Cleveland Center
01:32PM 43.1181 -76.3458 66° East 302 348 6,700 -1,320 Descending Cleveland Center
01:33PM 43.1533 -76.2214 69° East 294 338 5,400 -1,080 Descending Cleveland Center
01:34PM 43.1661 -76.1181 80° East 285 328 4,500 -1,140 Descending Cleveland Center
01:35PM 43.1786 -76.0194 80° East 274 315 3,100 -840 Descending Cleveland Center
01:36PM 43.1842 -75.9297 85° East 262 302 2,800 -600 Descending Cleveland Center
01:37PM 43.1342 -75.9000 157° South 223 257 1,900 -480 Descending Cleveland Center
01:38PM 43.1153 -75.9511 243° Southwest 184 212 1,900 -180 Level Cleveland Center
01:39PM 43.1128 -76.0133 267° West 154 177 1,600 -300 Descending Boston Center
01:39PM 43.1106 -76.0144 200° South 113 130 1,600 -720 Level Boston Center
01:40PM 43.1103 -76.0567 269° West 132 152 900 -840 Descending Boston Center
01:40PM 43.1086 -76.0636 252° West 116 133 800 -600 Descending Boston Center
01:41PM 43.1094 -76.1017 272° West 123 142 300 -600 Descending Boston Center